KBIE/BIE METAR and TAF weather

Enter ICAO airport designator
Station Type Date Time Source
KBIE METAR 2021/10/24 22:15 UTC NOAA

KBIE 242215Z AUTO 33014KT 10SM BKN010 OVC018 09/08 A2975 RMK AO2 LTG DSNT E T00850084


Station Type Date Time Source
KBIE Decoded METAR 2021/10/24 22:15 UTC NOAA

Beatrice Municipal, NE, United States (KBIE) 40-18N 096-45W
Oct 24, 2021 - 06:15 PM EDT / 2021.10.24 2215 UTC
Wind: from the NNW (330 degrees) at 16 MPH (14 KT):0
Visibility: 10 mile(s):0
Sky conditions: overcast
Weather: Lightning observed
Temperature: 47.3 F (8.5 C)
Dew Point: 47.1 F (8.4 C)
Relative Humidity: 99%
Pressure (altimeter): 29.75 in. Hg (1007 hPa)
ob: KBIE 242215Z AUTO 33014KT 10SM BKN010 OVC018 09/08 A2975 RMK AO2 LTG DSNT E T00850084
cycle: 22

Station Type Date Time Source
KBIE TAF UTC NOAA

Error!

Example: see airport list